createdAt,value
2022-12-17T00:00:46.297Z,-4.80
2022-12-17T00:03:33.107Z,-4.80
2022-12-17T00:06:19.513Z,-4.80
2022-12-17T00:09:05.757Z,-4.80
2022-12-17T00:11:52.416Z,-4.90
2022-12-17T00:14:42.788Z,-4.90
2022-12-17T00:17:29.187Z,-5.00
2022-12-17T00:20:15.832Z,-5.10
2022-12-17T00:23:02.426Z,-5.10
2022-12-17T00:25:48.979Z,-5.00
2022-12-17T00:28:35.548Z,-5.10
2022-12-17T00:31:22.298Z,-5.10
2022-12-17T00:34:28.682Z,-5.20
2022-12-17T00:37:15.657Z,-5.20
2022-12-17T00:40:04.468Z,-5.20
2022-12-17T00:42:50.576Z,-5.20
2022-12-17T00:45:37.213Z,-5.20
2022-12-17T00:48:23.722Z,-5.20
2022-12-17T00:51:10.364Z,-5.10
2022-12-17T00:53:57.130Z,-5.10
2022-12-17T00:56:44.708Z,-5.20
2022-12-17T00:59:32.207Z,-5.20
2022-12-17T01:02:19.707Z,-5.20
2022-12-17T01:05:06.381Z,-5.10
2022-12-17T01:07:52.978Z,-5.20
2022-12-17T01:10:42.938Z,-5.30
2022-12-17T01:13:34.086Z,-5.30
2022-12-17T01:16:26.632Z,-5.30
2022-12-17T01:19:13.598Z,-5.20
2022-12-17T01:22:00.610Z,-5.20
2022-12-17T01:24:47.077Z,-5.30
2022-12-17T01:27:33.782Z,-5.30
2022-12-17T01:30:20.757Z,-5.20
2022-12-17T01:33:07.346Z,-5.30
2022-12-17T01:35:53.854Z,-5.30
2022-12-17T01:38:40.494Z,-5.40
2022-12-17T01:41:33.266Z,-5.50
2022-12-17T01:45:14.795Z,-5.50
2022-12-17T01:48:23.677Z,-5.40
2022-12-17T01:51:14.703Z,-5.40
2022-12-17T01:54:12.541Z,-5.40
2022-12-17T01:57:02.346Z,-5.50
2022-12-17T02:00:14.738Z,-5.40
2022-12-17T02:03:02.674Z,-5.40
2022-12-17T02:06:34.908Z,-5.50
2022-12-17T02:10:13.861Z,-5.60
2022-12-17T02:13:09.590Z,-5.60
2022-12-17T02:16:26.021Z,-5.60
2022-12-17T02:19:47.434Z,-5.60
2022-12-17T02:23:00.832Z,-5.60
2022-12-17T02:26:13.056Z,-5.60
2022-12-17T02:29:05.421Z,-5.60
2022-12-17T02:31:57.099Z,-5.60
2022-12-17T02:34:44.019Z,-5.60
2022-12-17T02:37:30.578Z,-5.70
2022-12-17T02:40:17.733Z,-5.70
2022-12-17T02:43:07.019Z,-5.80
2022-12-17T02:45:56.538Z,-5.80
2022-12-17T02:48:43.327Z,-5.80
2022-12-17T02:51:30.651Z,-5.80
2022-12-17T02:54:22.585Z,-5.80
2022-12-17T02:57:09.444Z,-5.80
2022-12-17T02:59:55.826Z,-5.80
2022-12-17T03:02:43.466Z,-5.80
2022-12-17T03:05:46.081Z,-5.80
2022-12-17T03:08:32.798Z,-5.70
2022-12-17T03:11:19.502Z,-5.60
2022-12-17T03:14:05.907Z,-5.40
2022-12-17T03:16:52.226Z,-5.20
2022-12-17T03:19:38.825Z,-5.10
2022-12-17T03:22:25.455Z,-5.00
2022-12-17T03:25:11.867Z,-5.00
2022-12-17T03:27:58.286Z,-5.00
2022-12-17T03:30:48.888Z,-5.00
2022-12-17T03:33:36.226Z,-4.90
2022-12-17T03:36:22.893Z,-4.80
2022-12-17T03:39:09.412Z,-4.80
2022-12-17T03:41:55.499Z,-4.90
2022-12-17T03:44:41.792Z,-4.90
2022-12-17T03:47:28.418Z,-5.10
2022-12-17T03:50:14.872Z,-5.10
2022-12-17T03:53:01.555Z,-5.20
2022-12-17T03:55:48.164Z,-5.20
2022-12-17T03:58:34.148Z,-5.10
2022-12-17T04:01:20.682Z,-5.10
2022-12-17T04:04:07.349Z,-5.10
2022-12-17T04:07:01.654Z,-5.10
2022-12-17T04:09:47.884Z,-5.00
2022-12-17T04:12:34.498Z,-4.90
2022-12-17T04:15:20.732Z,-4.90
2022-12-17T04:18:07.408Z,-5.00
2022-12-17T04:20:53.989Z,-5.00
2022-12-17T04:23:40.606Z,-5.10
2022-12-17T04:26:28.289Z,-5.00
2022-12-17T04:29:34.700Z,-4.90
2022-12-17T04:32:21.143Z,-4.80
2022-12-17T04:35:07.446Z,-4.90
2022-12-17T04:37:53.940Z,-4.90
2022-12-17T04:40:40.469Z,-5.00
2022-12-17T04:43:30.532Z,-5.00
2022-12-17T04:46:17.414Z,-5.00
2022-12-17T04:49:03.875Z,-5.00
2022-12-17T04:51:50.433Z,-5.10
2022-12-17T04:54:36.688Z,-5.20
2022-12-17T04:57:23.343Z,-5.20
2022-12-17T05:00:09.417Z,-5.10
2022-12-17T05:02:56.151Z,-5.00
2022-12-17T05:05:42.679Z,-4.80
2022-12-17T05:08:29.289Z,-4.90
2022-12-17T05:11:24.940Z,-4.80
2022-12-17T05:14:11.586Z,-4.80
2022-12-17T05:16:57.958Z,-4.80
2022-12-17T05:19:44.482Z,-4.90
2022-12-17T05:22:31.034Z,-4.90
2022-12-17T05:25:17.233Z,-4.80
2022-12-17T05:28:05.845Z,-4.80
2022-12-17T05:30:52.633Z,-4.80
2022-12-17T05:33:39.174Z,-4.80
2022-12-17T05:36:26.259Z,-4.70
2022-12-17T05:39:12.925Z,-4.70
2022-12-17T05:41:59.513Z,-4.80
2022-12-17T05:44:45.955Z,-4.70
2022-12-17T05:47:32.300Z,-4.80
2022-12-17T05:50:18.751Z,-4.80
2022-12-17T05:53:05.301Z,-4.90
2022-12-17T05:55:51.528Z,-4.90
2022-12-17T05:58:37.964Z,-4.90
2022-12-17T06:01:24.980Z,-4.80
2022-12-17T06:04:11.652Z,-4.90
2022-12-17T06:06:58.244Z,-4.80
2022-12-17T06:09:44.861Z,-4.80
2022-12-17T06:12:30.910Z,-4.70
2022-12-17T06:15:17.522Z,-4.70
2022-12-17T06:18:16.902Z,-4.60
2022-12-17T06:21:04.703Z,-4.70
2022-12-17T06:23:51.071Z,-4.70
2022-12-17T06:26:38.961Z,-4.80
2022-12-17T06:29:25.687Z,-4.80
2022-12-17T06:32:12.166Z,-4.80
2022-12-17T06:34:58.463Z,-4.80
2022-12-17T06:37:45.157Z,-4.80
2022-12-17T06:40:31.703Z,-4.80
2022-12-17T06:43:17.801Z,-4.80
2022-12-17T06:46:04.383Z,-4.80
2022-12-17T06:48:50.997Z,-4.90
2022-12-17T06:51:37.706Z,-5.00
2022-12-17T06:54:24.278Z,-4.90
2022-12-17T06:57:10.702Z,-4.90
2022-12-17T06:59:57.491Z,-4.90
2022-12-17T07:02:43.774Z,-4.90
2022-12-17T07:05:30.014Z,-5.00
2022-12-17T07:08:18.548Z,-5.00
2022-12-17T07:11:05.249Z,-5.00
2022-12-17T07:13:51.686Z,-5.00
2022-12-17T07:16:38.302Z,-5.00
2022-12-17T07:19:27.392Z,-5.20
2022-12-17T07:22:15.595Z,-5.20
2022-12-17T07:25:02.071Z,-5.20
2022-12-17T07:27:48.650Z,-5.30
2022-12-17T07:30:35.265Z,-5.40
2022-12-17T07:33:25.016Z,-5.30
2022-12-17T07:36:12.116Z,-5.40
2022-12-17T07:38:58.958Z,-5.30
2022-12-17T07:41:45.619Z,-5.20
2022-12-17T07:44:32.252Z,-5.20
2022-12-17T07:47:18.956Z,-5.30
2022-12-17T07:50:05.550Z,-5.20
2022-12-17T07:52:52.127Z,-5.10
2022-12-17T07:55:38.781Z,-5.10
2022-12-17T07:58:28.963Z,-5.00
2022-12-17T08:01:19.770Z,-5.00
2022-12-17T08:04:06.427Z,-4.90
2022-12-17T08:06:58.353Z,-4.90
2022-12-17T08:09:46.917Z,-4.70
2022-12-17T08:12:33.597Z,-4.70
2022-12-17T08:15:20.123Z,-4.60
2022-12-17T08:18:06.718Z,-4.60
2022-12-17T08:20:53.460Z,-4.50
2022-12-17T08:23:40.049Z,-4.50
2022-12-17T08:26:26.492Z,-4.50
2022-12-17T08:29:12.842Z,-4.50
2022-12-17T08:31:58.985Z,-4.50
2022-12-17T08:34:45.351Z,-4.50
2022-12-17T08:37:31.813Z,-4.60
2022-12-17T08:40:18.269Z,-4.60
2022-12-17T08:43:04.531Z,-4.60
2022-12-17T08:45:51.463Z,-4.60
2022-12-17T08:48:38.201Z,-4.70
2022-12-17T08:51:24.795Z,-4.80
2022-12-17T08:54:11.220Z,-4.80
2022-12-17T08:56:57.463Z,-4.80
2022-12-17T08:59:43.782Z,-4.90
2022-12-17T09:02:30.506Z,-4.90
2022-12-17T09:05:17.018Z,-4.80
2022-12-17T09:08:07.425Z,-4.90
2022-12-17T09:10:54.023Z,-4.90
2022-12-17T09:13:40.330Z,-4.80
2022-12-17T09:16:26.826Z,-4.80
2022-12-17T09:19:13.518Z,-4.80
2022-12-17T09:22:00.037Z,-4.80
2022-12-17T09:24:46.645Z,-4.70
2022-12-17T09:27:33.403Z,-4.70
2022-12-17T09:30:19.787Z,-4.80
2022-12-17T09:33:06.305Z,-4.80
2022-12-17T09:35:52.932Z,-4.90
2022-12-17T09:38:39.421Z,-4.80
2022-12-17T09:42:50.964Z,-4.60
2022-12-17T09:45:54.975Z,-4.50
2022-12-17T09:49:19.961Z,-4.50
2022-12-17T09:52:06.483Z,-4.50
2022-12-17T09:55:01.560Z,-4.30
2022-12-17T09:57:53.763Z,-4.30
2022-12-17T10:00:41.849Z,-4.30
2022-12-17T10:03:42.620Z,-4.30
2022-12-17T10:06:37.720Z,-4.20
2022-12-17T10:09:35.450Z,-4.10
2022-12-17T10:12:48.128Z,-4.20
2022-12-17T10:15:34.987Z,-4.20
2022-12-17T10:18:29.389Z,-4.30
2022-12-17T10:21:27.126Z,-4.20
2022-12-17T10:24:29.222Z,-4.20
2022-12-17T10:27:15.801Z,-4.30
2022-12-17T10:30:03.325Z,-4.20
2022-12-17T10:32:49.716Z,-4.10
2022-12-17T10:35:43.088Z,-4.00
2022-12-17T10:38:49.968Z,-3.90
2022-12-17T10:41:53.591Z,-3.90
2022-12-17T10:44:45.760Z,-3.90
2022-12-17T10:47:41.929Z,-3.90
2022-12-17T10:50:38.083Z,-3.90
2022-12-17T10:53:42.181Z,-3.80
2022-12-17T10:56:44.258Z,-3.70
2022-12-17T10:59:55.086Z,-3.70
2022-12-17T11:02:48.290Z,-3.70
2022-12-17T11:05:49.301Z,-3.70
2022-12-17T11:08:36.829Z,-3.90
2022-12-17T11:11:29.524Z,-3.80
2022-12-17T11:14:26.855Z,-3.70
2022-12-17T11:17:16.815Z,-3.80
2022-12-17T11:20:33.313Z,-3.70
2022-12-17T11:23:20.985Z,-3.70
2022-12-17T11:26:43.765Z,-3.70
2022-12-17T11:29:32.501Z,-3.70
2022-12-17T11:32:27.595Z,-3.70
2022-12-17T11:35:25.829Z,-3.70
2022-12-17T11:38:31.464Z,-3.60
2022-12-17T11:41:34.215Z,-3.50
2022-12-17T11:44:35.553Z,-3.50
2022-12-17T11:47:40.806Z,-3.50
2022-12-17T11:51:17.668Z,-3.30
2022-12-17T11:54:36.229Z,-3.30
2022-12-17T11:57:56.505Z,-3.30
2022-12-17T12:00:43.637Z,-3.30
2022-12-17T12:04:22.212Z,-3.30
2022-12-17T12:07:45.360Z,-3.20
2022-12-17T12:10:53.688Z,-3.10
2022-12-17T12:14:06.604Z,-3.00
2022-12-17T12:17:25.689Z,-2.80
2022-12-17T12:20:12.106Z,-2.80
2022-12-17T12:23:32.154Z,-2.80
2022-12-17T12:26:46.204Z,-2.70
2022-12-17T12:30:34.323Z,-2.60
2022-12-17T12:34:10.789Z,-2.60
2022-12-17T12:36:59.669Z,-2.60
2022-12-17T12:39:55.857Z,-2.70
2022-12-17T12:43:03.904Z,-2.70
2022-12-17T12:46:23.017Z,-2.70
2022-12-17T12:49:47.356Z,-2.70
2022-12-17T12:52:42.522Z,-2.70
2022-12-17T12:55:29.873Z,-2.70
2022-12-17T12:58:47.106Z,-2.60
2022-12-17T13:01:33.896Z,-2.50
2022-12-17T13:04:35.304Z,-2.50
2022-12-17T13:07:04.227Z,-2.50
2022-12-17T13:09:52.597Z,-2.50
2022-12-17T13:12:31.805Z,-2.40
2022-12-17T13:14:59.468Z,-2.40
2022-12-17T13:17:38.892Z,-2.40
2022-12-17T13:20:26.257Z,-2.40
2022-12-17T13:23:18.237Z,-2.50
2022-12-17T13:25:46.431Z,-2.50
2022-12-17T13:28:29.392Z,-2.60
2022-12-17T13:31:14.209Z,-2.60
2022-12-17T13:33:58.999Z,-2.70
2022-12-17T13:36:48.759Z,-2.70
2022-12-17T13:39:40.540Z,-2.80
2022-12-17T13:42:34.987Z,-2.80
2022-12-17T13:45:03.688Z,-2.80
2022-12-17T13:47:35.304Z,-2.80
2022-12-17T13:50:38.097Z,-2.80
2022-12-17T13:53:15.432Z,-2.80
2022-12-17T13:55:53.850Z,-2.80
2022-12-17T13:58:34.118Z,-2.90
2022-12-17T14:01:11.629Z,-2.90
2022-12-17T14:04:05.405Z,-3.00
2022-12-17T14:06:37.312Z,-2.90
2022-12-17T14:09:06.361Z,-3.00
2022-12-17T14:11:56.354Z,-3.10
2022-12-17T14:14:50.295Z,-3.10
2022-12-17T14:17:28.394Z,-3.10
2022-12-17T14:20:13.128Z,-3.10
2022-12-17T14:22:51.377Z,-3.20
2022-12-17T14:25:40.966Z,-3.20
2022-12-17T14:28:36.508Z,-3.30
2022-12-17T14:31:29.057Z,-3.30
2022-12-17T14:34:11.910Z,-3.40
2022-12-17T14:36:42.595Z,-3.30
2022-12-17T14:39:33.416Z,-3.30
2022-12-17T14:42:37.165Z,-3.30
2022-12-17T14:45:24.901Z,-3.40
2022-12-17T14:47:57.222Z,-3.50
2022-12-17T14:50:36.661Z,-3.50
2022-12-17T14:53:27.745Z,-3.50
2022-12-17T14:55:59.405Z,-3.60
2022-12-17T14:58:27.837Z,-3.80
2022-12-17T15:01:14.673Z,-3.80
2022-12-17T15:03:46.610Z,-3.80
2022-12-17T15:06:19.134Z,-3.80
2022-12-17T15:08:50.261Z,-3.90
2022-12-17T15:11:22.064Z,-4.00
2022-12-17T15:13:54.625Z,-4.00
2022-12-17T15:16:24.426Z,-4.10
2022-12-17T15:18:52.269Z,-4.10
2022-12-17T15:21:20.598Z,-4.10
2022-12-17T15:23:49.082Z,-4.20
2022-12-17T15:26:17.459Z,-4.30
2022-12-17T15:28:45.855Z,-4.30
2022-12-17T15:31:17.720Z,-4.30
2022-12-17T15:33:47.766Z,-4.40
2022-12-17T15:36:15.536Z,-4.40
2022-12-17T15:38:43.321Z,-4.40
2022-12-17T15:41:29.760Z,-4.50
2022-12-17T15:43:57.538Z,-4.50
2022-12-17T15:46:25.451Z,-4.50
2022-12-17T15:48:53.217Z,-4.50
2022-12-17T15:51:21.321Z,-4.50
2022-12-17T15:53:50.302Z,-4.50
2022-12-17T15:56:25.673Z,-4.50
2022-12-17T15:58:56.745Z,-4.50
2022-12-17T16:01:25.243Z,-4.60
2022-12-17T16:03:53.330Z,-4.60
2022-12-17T16:06:21.199Z,-4.60
2022-12-17T16:08:49.079Z,-4.60
2022-12-17T16:11:16.922Z,-4.60
2022-12-17T16:13:44.838Z,-4.80
2022-12-17T16:16:12.657Z,-4.80
2022-12-17T16:18:40.806Z,-4.90
2022-12-17T16:21:09.850Z,-5.10
2022-12-17T16:23:38.070Z,-5.20
2022-12-17T16:26:08.283Z,-5.30
2022-12-17T16:28:36.940Z,-5.40
2022-12-17T16:31:09.254Z,-5.40
2022-12-17T16:33:40.378Z,-5.30
2022-12-17T16:36:13.305Z,-5.30
2022-12-17T16:38:51.004Z,-5.30
2022-12-17T16:41:21.339Z,-5.30
2022-12-17T16:43:49.280Z,-5.30
2022-12-17T16:46:40.124Z,-5.40
2022-12-17T16:49:20.390Z,-5.40
2022-12-17T16:51:51.450Z,-5.40
2022-12-17T16:54:23.204Z,-5.40
2022-12-17T16:56:51.948Z,-5.40
2022-12-17T16:59:20.041Z,-5.40
2022-12-17T17:01:50.957Z,-5.40
2022-12-17T17:04:22.633Z,-5.40
2022-12-17T17:06:56.743Z,-5.40
2022-12-17T17:09:25.807Z,-5.50
2022-12-17T17:11:58.751Z,-5.40
2022-12-17T17:14:27.221Z,-5.40
2022-12-17T17:16:55.149Z,-5.40
2022-12-17T17:19:22.890Z,-5.40
2022-12-17T17:21:54.108Z,-5.40
2022-12-17T17:24:25.514Z,-5.50
2022-12-17T17:26:55.261Z,-5.50
2022-12-17T17:29:23.374Z,-5.60
2022-12-17T17:34:40.011Z,-5.70
2022-12-17T17:37:08.094Z,-5.90
2022-12-17T17:39:36.276Z,-6.00
2022-12-17T17:42:04.303Z,-6.00
2022-12-17T17:44:32.515Z,-6.00
2022-12-17T17:47:00.802Z,-6.00
2022-12-17T17:49:28.954Z,-6.00
2022-12-17T17:52:12.459Z,-6.10
2022-12-17T17:54:40.858Z,-6.10
2022-12-17T17:57:09.966Z,-6.10
2022-12-17T17:59:39.584Z,-6.10
2022-12-17T18:02:09.729Z,-6.10
2022-12-17T18:04:37.855Z,-6.00
2022-12-17T18:09:53.653Z,-6.00
2022-12-17T18:12:40.324Z,-5.90
2022-12-17T18:15:18.188Z,-5.90
2022-12-17T18:17:51.339Z,-5.90
2022-12-17T18:20:19.293Z,-5.90
2022-12-17T18:22:47.425Z,-5.80
2022-12-17T18:25:17.755Z,-5.80
2022-12-17T18:27:45.654Z,-5.80
2022-12-17T18:30:16.241Z,-5.90
2022-12-17T18:32:44.306Z,-5.80
2022-12-17T18:35:12.293Z,-5.80
2022-12-17T18:37:40.141Z,-5.70
2022-12-17T18:40:09.020Z,-5.70
2022-12-17T18:42:55.613Z,-5.80
2022-12-17T18:45:23.395Z,-5.80
2022-12-17T18:47:51.452Z,-5.90
2022-12-17T18:50:19.322Z,-5.90
2022-12-17T18:52:47.062Z,-5.90
2022-12-17T18:55:14.882Z,-5.90
2022-12-17T18:57:42.667Z,-6.10
2022-12-17T19:00:11.465Z,-6.20
2022-12-17T19:02:39.436Z,-6.20
2022-12-17T19:05:07.911Z,-6.20
2022-12-17T19:07:35.719Z,-6.30
2022-12-17T19:10:03.986Z,-6.20
2022-12-17T19:12:32.542Z,-6.30
2022-12-17T19:15:00.295Z,-6.30
2022-12-17T19:17:28.080Z,-6.30
2022-12-17T19:19:55.785Z,-6.40
2022-12-17T19:22:23.571Z,-6.40
2022-12-17T19:24:51.331Z,-6.50
2022-12-17T19:27:19.155Z,-6.50
2022-12-17T19:29:49.648Z,-6.50
2022-12-17T19:32:19.413Z,-6.50
2022-12-17T19:34:47.168Z,-6.60
2022-12-17T19:37:14.949Z,-6.70
2022-12-17T19:39:42.674Z,-6.70
2022-12-17T19:42:24.555Z,-6.70
2022-12-17T19:44:55.170Z,-6.60
2022-12-17T19:47:24.022Z,-6.60
2022-12-17T19:49:51.853Z,-6.50
2022-12-17T19:52:19.676Z,-6.50
2022-12-17T19:54:49.282Z,-6.50
2022-12-17T19:57:17.061Z,-6.50
2022-12-17T19:59:44.887Z,-6.40
2022-12-17T20:02:12.816Z,-6.30
2022-12-17T20:04:40.703Z,-6.30
2022-12-17T20:07:08.453Z,-6.30
2022-12-17T20:09:36.281Z,-6.30
2022-12-17T20:12:04.466Z,-6.20
2022-12-17T20:14:34.268Z,-6.10
2022-12-17T20:17:02.811Z,-5.90
2022-12-17T20:19:33.514Z,-5.80
2022-12-17T20:22:04.985Z,-5.60
2022-12-17T20:24:33.063Z,-5.60
2022-12-17T20:27:01.521Z,-5.50
2022-12-17T20:29:29.913Z,-5.40
2022-12-17T20:31:58.235Z,-5.40
2022-12-17T20:34:26.203Z,-5.40
2022-12-17T20:36:54.736Z,-5.40
2022-12-17T20:39:27.038Z,-5.30
2022-12-17T20:41:56.926Z,-5.30
2022-12-17T20:44:25.022Z,-5.30
2022-12-17T20:46:52.949Z,-5.20
2022-12-17T20:49:21.955Z,-5.10
2022-12-17T20:51:49.752Z,-5.00
2022-12-17T20:54:17.482Z,-5.10
2022-12-17T20:56:45.362Z,-5.10
2022-12-17T20:59:19.338Z,-5.10
2022-12-17T21:01:51.682Z,-5.20
2022-12-17T21:04:24.281Z,-5.20
2022-12-17T21:06:52.177Z,-5.30
2022-12-17T21:09:22.315Z,-5.20
2022-12-17T21:11:50.173Z,-5.30
2022-12-17T21:14:19.348Z,-5.30
2022-12-17T21:16:48.060Z,-5.30
2022-12-17T21:19:19.241Z,-5.40
2022-12-17T21:21:47.675Z,-5.40
2022-12-17T21:24:15.976Z,-5.30
2022-12-17T21:26:47.179Z,-5.30
2022-12-17T21:29:16.197Z,-5.30
2022-12-17T21:31:50.258Z,-5.40
2022-12-17T21:34:23.361Z,-5.50
2022-12-17T21:36:52.080Z,-5.40
2022-12-17T21:39:20.547Z,-5.50
2022-12-17T21:42:07.974Z,-5.50
2022-12-17T21:44:36.687Z,-5.50
2022-12-17T21:47:04.966Z,-5.50
2022-12-17T21:49:32.826Z,-5.50
2022-12-17T21:52:01.818Z,-5.60
2022-12-17T21:54:29.597Z,-5.70
2022-12-17T21:56:57.395Z,-5.80
2022-12-17T21:59:25.174Z,-5.90
2022-12-17T22:01:54.277Z,-5.90
2022-12-17T22:04:22.253Z,-5.90
2022-12-17T22:07:00.391Z,-5.90
2022-12-17T22:09:50.132Z,-5.90
2022-12-17T22:12:43.834Z,-5.90
2022-12-17T22:15:12.328Z,-6.00
2022-12-17T22:17:42.300Z,-6.00
2022-12-17T22:20:11.199Z,-6.00
2022-12-17T22:22:39.082Z,-5.90
2022-12-17T22:25:10.086Z,-5.90
2022-12-17T22:27:40.732Z,-5.80
2022-12-17T22:30:33.578Z,-5.90
2022-12-17T22:33:03.545Z,-5.80
2022-12-17T22:36:55.027Z,-5.90
2022-12-17T22:42:11.699Z,-5.80
2022-12-17T22:44:37.338Z,-5.80
2022-12-17T22:44:45.635Z,-5.80
2022-12-17T22:47:12.880Z,-5.80
2022-12-17T22:49:41.194Z,-5.80
2022-12-17T22:52:11.934Z,-5.80
2022-12-17T22:54:40.035Z,-5.70
2022-12-17T22:57:27.041Z,-5.60
2022-12-17T22:59:55.928Z,-5.60
2022-12-17T23:02:24.040Z,-5.50
2022-12-17T23:04:52.015Z,-5.60
2022-12-17T23:07:19.803Z,-5.60
2022-12-17T23:09:47.532Z,-5.60
2022-12-17T23:12:34.127Z,-5.50
2022-12-17T23:15:02.172Z,-5.50
2022-12-17T23:17:30.677Z,-5.40
2022-12-17T23:19:58.418Z,-5.40
2022-12-17T23:22:26.183Z,-5.40
2022-12-17T23:24:53.933Z,-5.40
2022-12-17T23:27:21.715Z,-5.40
2022-12-17T23:29:49.650Z,-5.40
2022-12-17T23:32:17.426Z,-5.50
2022-12-17T23:34:45.162Z,-5.60
2022-12-17T23:37:13.011Z,-5.50
2022-12-17T23:39:40.820Z,-5.50
2022-12-17T23:42:08.606Z,-5.50
2022-12-17T23:44:36.350Z,-5.50
2022-12-17T23:47:04.260Z,-5.40
2022-12-17T23:49:32.119Z,-5.50
2022-12-17T23:51:59.918Z,-5.40
2022-12-17T23:54:27.830Z,-5.40
2022-12-17T23:56:55.619Z,-5.50
2022-12-17T23:59:23.418Z,-5.50
